createdAt,value
2017-10-17T00:02:20.843Z,14.60
2017-10-17T00:04:47.736Z,14.60
2017-10-17T00:07:13.829Z,14.60
2017-10-17T00:09:39.917Z,14.60
2017-10-17T00:12:06.062Z,14.60
2017-10-17T00:14:32.136Z,14.70
2017-10-17T00:16:58.237Z,14.70
2017-10-17T00:19:24.312Z,14.70
2017-10-17T00:21:50.423Z,14.60
2017-10-17T00:24:16.527Z,14.60
2017-10-17T00:26:42.600Z,14.60
2017-10-17T00:29:08.673Z,14.60
2017-10-17T00:31:35.521Z,14.60
2017-10-17T00:34:02.390Z,14.50
2017-10-17T00:36:29.281Z,14.50
2017-10-17T00:38:55.384Z,14.50
2017-10-17T00:41:22.201Z,14.40
2017-10-17T00:43:48.296Z,14.40
2017-10-17T00:46:15.284Z,14.40
2017-10-17T00:48:41.497Z,14.40
2017-10-17T00:51:26.353Z,14.40
2017-10-17T00:53:53.163Z,14.40
2017-10-17T00:56:19.271Z,14.30
2017-10-17T00:58:45.384Z,14.40
2017-10-17T01:01:12.313Z,14.30
2017-10-17T01:03:38.381Z,14.30
2017-10-17T01:06:05.229Z,14.30
2017-10-17T01:08:32.097Z,14.20
2017-10-17T01:10:58.188Z,14.30
2017-10-17T01:13:24.349Z,14.30
2017-10-17T01:15:50.425Z,14.30
2017-10-17T01:18:16.496Z,14.30
2017-10-17T01:20:46.433Z,14.40
2017-10-17T01:23:12.506Z,14.40
2017-10-17T01:25:40.193Z,14.50
2017-10-17T01:28:12.156Z,14.50
2017-10-17T01:30:38.981Z,14.50
2017-10-17T01:33:05.809Z,14.50
2017-10-17T01:35:31.946Z,14.40
2017-10-17T01:37:59.009Z,14.40
2017-10-17T01:40:28.037Z,14.40
2017-10-17T01:42:54.210Z,14.50
2017-10-17T01:45:23.081Z,14.50
2017-10-17T01:47:50.171Z,14.40
2017-10-17T01:50:17.038Z,14.50
2017-10-17T01:55:49.486Z,14.60
2017-10-17T01:58:16.563Z,14.60
2017-10-17T02:00:42.636Z,14.70
2017-10-17T02:03:09.485Z,14.50
2017-10-17T02:05:35.582Z,14.50
2017-10-17T02:08:01.686Z,14.50
2017-10-17T02:10:28.539Z,14.50
2017-10-17T02:12:57.225Z,14.60
2017-10-17T02:15:24.101Z,14.60
2017-10-17T02:20:57.657Z,14.60
2017-10-17T02:23:23.756Z,14.60
2017-10-17T02:25:50.657Z,14.50
2017-10-17T02:28:20.577Z,14.50
2017-10-17T02:30:54.517Z,14.60
2017-10-17T02:33:22.450Z,14.70
2017-10-17T02:35:49.297Z,14.90
2017-10-17T02:38:16.213Z,14.90
2017-10-17T02:40:42.289Z,14.90
2017-10-17T02:43:12.346Z,15.00
2017-10-17T02:45:38.441Z,15.00
2017-10-17T02:48:10.387Z,15.10
2017-10-17T02:50:36.461Z,15.00
2017-10-17T02:53:02.563Z,15.00
2017-10-17T02:55:28.638Z,14.90
2017-10-17T02:57:54.720Z,15.10
2017-10-17T03:00:20.817Z,15.20
2017-10-17T03:02:47.765Z,15.20
2017-10-17T03:05:14.730Z,15.10
2017-10-17T03:07:40.821Z,15.10
2017-10-17T03:10:06.905Z,15.10
2017-10-17T03:12:32.974Z,15.00
2017-10-17T03:15:02.070Z,15.10
2017-10-17T03:17:28.877Z,15.00
2017-10-17T03:19:55.929Z,14.90
2017-10-17T03:22:22.032Z,15.00
2017-10-17T03:24:52.199Z,15.00
2017-10-17T03:27:18.256Z,14.90
2017-10-17T03:29:44.352Z,14.90
2017-10-17T03:32:10.448Z,14.90
2017-10-17T03:34:52.440Z,14.90
2017-10-17T03:40:38.188Z,14.90
2017-10-17T03:43:09.281Z,15.00
2017-10-17T03:45:35.340Z,15.00
2017-10-17T03:48:03.338Z,15.00
2017-10-17T03:50:33.337Z,14.90
2017-10-17T03:53:02.240Z,14.80
2017-10-17T03:55:28.336Z,14.70
2017-10-17T03:57:56.396Z,14.70
2017-10-17T04:00:22.470Z,14.60
2017-10-17T04:02:50.205Z,14.70
2017-10-17T04:05:32.223Z,14.60
2017-10-17T04:08:17.334Z,14.70
2017-10-17T04:10:48.403Z,14.70
2017-10-17T04:16:40.568Z,14.60
2017-10-17T04:19:16.592Z,14.60
2017-10-17T04:21:43.448Z,14.40
2017-10-17T04:24:12.360Z,14.30
2017-10-17T04:26:38.449Z,14.40
2017-10-17T04:29:13.212Z,14.20
2017-10-17T04:31:41.345Z,14.20
2017-10-17T04:37:16.076Z,14.30
2017-10-17T04:39:42.236Z,14.10
2017-10-17T04:42:20.648Z,14.20
2017-10-17T04:51:26.184Z,14.30
2017-10-17T04:57:01.035Z,14.20
2017-10-17T04:59:40.620Z,14.30
2017-10-17T05:02:10.555Z,14.20
2017-10-17T05:08:05.120Z,14.10
2017-10-17T05:10:48.112Z,14.10
2017-10-17T05:16:16.931Z,13.90
2017-10-17T05:18:50.576Z,13.90
2017-10-17T05:21:16.716Z,13.90
2017-10-17T05:23:54.620Z,13.90
2017-10-17T05:26:20.710Z,13.80
2017-10-17T05:28:50.843Z,13.80
2017-10-17T05:31:19.722Z,13.80
2017-10-17T05:33:49.765Z,13.80
2017-10-17T05:39:10.548Z,13.90
2017-10-17T05:41:37.432Z,13.90
2017-10-17T05:44:21.341Z,13.80
2017-10-17T05:46:47.440Z,13.90
2017-10-17T05:49:15.492Z,13.90
2017-10-17T05:51:41.588Z,13.90
2017-10-17T05:54:07.748Z,13.80
2017-10-17T05:56:33.846Z,13.90
2017-10-17T05:58:59.969Z,14.00
2017-10-17T06:01:26.041Z,13.90
2017-10-17T06:03:52.141Z,13.90
2017-10-17T06:06:18.262Z,13.90
2017-10-17T06:08:44.359Z,14.00
2017-10-17T06:11:10.474Z,14.00
2017-10-17T06:13:36.577Z,14.10
2017-10-17T06:16:02.711Z,14.10
2017-10-17T06:18:28.804Z,14.20
2017-10-17T06:20:54.913Z,14.30
2017-10-17T06:23:20.996Z,14.40
2017-10-17T06:25:47.084Z,14.30
2017-10-17T06:28:13.213Z,14.40
2017-10-17T06:30:39.285Z,14.40
2017-10-17T06:33:05.404Z,14.50
2017-10-17T06:35:31.544Z,14.50
2017-10-17T06:37:57.618Z,14.50
2017-10-17T06:40:23.739Z,14.60
2017-10-17T06:42:49.930Z,14.60
2017-10-17T06:45:16.009Z,14.60
2017-10-17T06:47:42.156Z,14.70
2017-10-17T06:50:08.256Z,14.70
2017-10-17T06:52:34.353Z,14.80
2017-10-17T06:55:01.177Z,14.80
2017-10-17T06:57:27.309Z,14.80
2017-10-17T06:59:53.429Z,15.00
2017-10-17T07:02:19.629Z,15.10
2017-10-17T07:04:46.547Z,15.20
2017-10-17T07:07:12.654Z,15.20
2017-10-17T07:09:38.842Z,15.30
2017-10-17T07:12:04.956Z,15.40
2017-10-17T07:14:31.028Z,15.40
2017-10-17T07:16:57.101Z,15.40
2017-10-17T07:19:23.200Z,15.60
2017-10-17T07:21:49.385Z,15.60
2017-10-17T07:24:15.512Z,15.70
2017-10-17T07:26:41.640Z,15.80
2017-10-17T07:29:07.715Z,15.90
2017-10-17T07:31:33.821Z,16.00
2017-10-17T07:33:59.913Z,16.00
2017-10-17T07:36:26.108Z,16.00
2017-10-17T07:38:52.189Z,16.10
2017-10-17T07:41:18.345Z,16.30
2017-10-17T07:43:52.092Z,17.00
2017-10-17T07:46:18.241Z,17.00
2017-10-17T07:48:44.320Z,17.90
2017-10-17T07:51:10.397Z,18.40
2017-10-17T07:53:36.505Z,18.50
2017-10-17T07:56:03.142Z,19.30
2017-10-17T07:58:29.288Z,19.30
2017-10-17T08:00:55.444Z,19.80
2017-10-17T08:03:22.374Z,21.00
2017-10-17T08:05:48.455Z,20.90
2017-10-17T08:08:15.299Z,21.70
2017-10-17T08:10:41.434Z,21.60
2017-10-17T08:13:08.271Z,22.00
2017-10-17T08:15:34.400Z,22.00
2017-10-17T08:18:00.619Z,21.30
2017-10-17T08:20:26.692Z,21.40
2017-10-17T08:22:52.790Z,21.80
2017-10-17T08:25:18.948Z,21.10
2017-10-17T08:27:45.074Z,21.10
2017-10-17T08:30:11.257Z,21.60
2017-10-17T08:32:38.161Z,22.60
2017-10-17T08:35:04.256Z,22.50
2017-10-17T08:37:31.100Z,22.00
2017-10-17T08:39:57.172Z,22.00
2017-10-17T08:42:23.637Z,23.10
2017-10-17T08:44:49.780Z,23.10
2017-10-17T08:47:15.888Z,23.70
2017-10-17T08:49:41.981Z,24.10
2017-10-17T08:52:08.204Z,23.80
2017-10-17T08:54:34.288Z,23.90
2017-10-17T08:57:00.390Z,24.10
2017-10-17T08:59:26.533Z,24.00
2017-10-17T09:01:52.671Z,23.40
2017-10-17T09:04:18.749Z,24.00
2017-10-17T09:06:44.868Z,23.60
2017-10-17T09:09:11.687Z,26.30
2017-10-17T09:11:37.762Z,26.20
2017-10-17T09:14:03.881Z,26.00
2017-10-17T09:16:30.037Z,24.40
2017-10-17T09:18:56.852Z,25.50
2017-10-17T09:21:22.993Z,25.50
2017-10-17T09:23:49.081Z,25.60
2017-10-17T09:26:15.144Z,27.30
2017-10-17T09:28:41.249Z,27.00
2017-10-17T09:31:08.060Z,27.80
2017-10-17T09:33:34.156Z,27.80
2017-10-17T09:36:00.272Z,28.10
2017-10-17T09:38:27.176Z,29.10
2017-10-17T09:40:53.264Z,29.00
2017-10-17T09:43:20.142Z,29.10
2017-10-17T09:45:46.280Z,29.00
2017-10-17T09:48:12.420Z,29.80
2017-10-17T09:50:38.557Z,29.70
2017-10-17T09:53:04.645Z,30.10
2017-10-17T09:55:30.736Z,30.00
2017-10-17T09:57:56.837Z,30.20
2017-10-17T10:00:22.997Z,30.40
2017-10-17T10:02:49.821Z,29.20
2017-10-17T10:05:15.925Z,29.10
2017-10-17T10:07:42.009Z,30.40
2017-10-17T10:10:08.102Z,29.30
2017-10-17T10:12:34.232Z,28.90
2017-10-17T10:15:00.312Z,28.90
2017-10-17T10:17:26.404Z,29.80
2017-10-17T10:19:52.554Z,31.10
2017-10-17T10:22:18.668Z,31.70
2017-10-17T10:24:44.753Z,30.10
2017-10-17T10:27:10.913Z,30.00
2017-10-17T10:29:37.768Z,30.50
2017-10-17T10:32:03.869Z,30.50
2017-10-17T10:34:30.001Z,30.80
2017-10-17T10:36:56.123Z,31.20
2017-10-17T10:39:22.305Z,31.40
2017-10-17T10:41:48.400Z,31.20
2017-10-17T10:44:14.488Z,30.40
2017-10-17T10:46:40.715Z,30.40
2017-10-17T10:49:06.791Z,30.80
2017-10-17T10:51:32.864Z,30.30
2017-10-17T10:53:58.964Z,29.80
2017-10-17T10:56:25.836Z,29.30
2017-10-17T10:58:51.901Z,29.30
2017-10-17T11:01:17.984Z,30.20
2017-10-17T11:03:44.809Z,30.90
2017-10-17T11:06:10.920Z,30.90
2017-10-17T11:08:37.015Z,30.60
2017-10-17T11:11:03.850Z,29.30
2017-10-17T11:13:31.170Z,29.20
2017-10-17T11:15:57.266Z,27.30
2017-10-17T11:18:23.333Z,29.20
2017-10-17T11:20:49.404Z,29.50
2017-10-17T11:23:15.465Z,29.90
2017-10-17T11:25:41.565Z,30.40
2017-10-17T11:28:07.624Z,30.50
2017-10-17T11:30:33.732Z,31.50
2017-10-17T11:32:59.813Z,31.70
2017-10-17T11:35:25.928Z,29.80
2017-10-17T11:37:52.001Z,28.70
2017-10-17T11:40:43.937Z,28.20
2017-10-17T11:43:22.326Z,28.10
2017-10-17T11:45:48.420Z,28.60
2017-10-17T11:48:15.325Z,27.50
2017-10-17T11:50:41.448Z,27.40
2017-10-17T11:53:07.509Z,28.30
2017-10-17T11:55:33.602Z,28.70
2017-10-17T11:57:59.716Z,28.00
2017-10-17T12:00:25.796Z,28.10
2017-10-17T12:02:51.900Z,29.40
2017-10-17T12:05:18.744Z,29.20
2017-10-17T12:07:44.846Z,29.10
2017-10-17T12:10:10.901Z,29.80
2017-10-17T12:12:36.996Z,30.80
2017-10-17T12:15:03.109Z,29.90
2017-10-17T12:17:29.956Z,30.30
2017-10-17T12:19:56.811Z,29.70
2017-10-17T12:22:23.669Z,30.20
2017-10-17T12:24:50.595Z,29.70
2017-10-17T12:27:16.745Z,29.70
2017-10-17T12:29:42.886Z,30.10
2017-10-17T12:32:08.977Z,29.40
2017-10-17T12:34:35.060Z,29.60
2017-10-17T12:37:01.185Z,29.30
2017-10-17T12:39:27.294Z,29.30
2017-10-17T12:41:53.382Z,29.20
2017-10-17T12:44:20.212Z,28.80
2017-10-17T12:46:46.616Z,28.70
2017-10-17T12:49:12.716Z,28.60
2017-10-17T12:51:38.789Z,27.60
2017-10-17T12:54:04.894Z,28.20
2017-10-17T12:56:31.727Z,27.80
2017-10-17T12:58:57.825Z,27.70
2017-10-17T13:01:23.926Z,28.60
2017-10-17T13:03:50.726Z,28.20
2017-10-17T13:06:16.834Z,28.20
2017-10-17T13:08:42.962Z,28.00
2017-10-17T13:11:09.824Z,28.20
2017-10-17T13:13:38.073Z,28.20
2017-10-17T13:16:04.164Z,28.00
2017-10-17T13:18:30.238Z,27.00
2017-10-17T13:20:56.302Z,27.40
2017-10-17T13:23:22.724Z,27.60
2017-10-17T13:25:48.824Z,27.60
2017-10-17T13:28:15.052Z,27.20
2017-10-17T13:30:41.180Z,27.20
2017-10-17T13:33:08.012Z,27.20
2017-10-17T13:35:34.098Z,27.20
2017-10-17T13:38:00.569Z,26.90
2017-10-17T13:40:26.717Z,26.90
2017-10-17T13:42:53.217Z,27.00
2017-10-17T13:45:19.351Z,26.80
2017-10-17T13:47:45.428Z,26.20
2017-10-17T13:50:11.535Z,25.50
2017-10-17T13:52:37.643Z,24.90
2017-10-17T13:55:04.469Z,25.10
2017-10-17T13:57:31.231Z,25.00
2017-10-17T13:59:57.568Z,24.70
2017-10-17T14:02:23.651Z,24.40
2017-10-17T14:04:49.759Z,24.30
2017-10-17T14:07:15.840Z,24.20
2017-10-17T14:09:41.916Z,23.80
2017-10-17T14:12:07.998Z,23.70
2017-10-17T14:14:34.892Z,23.50
2017-10-17T14:17:00.994Z,23.50
2017-10-17T14:19:27.807Z,23.30
2017-10-17T14:21:53.960Z,23.20
2017-10-17T14:24:20.020Z,23.20
2017-10-17T14:26:46.841Z,23.00
2017-10-17T14:29:12.949Z,23.00
2017-10-17T14:31:39.045Z,22.90
2017-10-17T14:34:05.880Z,22.80
2017-10-17T14:36:31.984Z,22.80
2017-10-17T14:38:58.146Z,22.60
2017-10-17T14:41:24.235Z,22.50
2017-10-17T14:43:50.333Z,22.50
2017-10-17T14:46:16.448Z,22.40
2017-10-17T14:48:42.934Z,22.30
2017-10-17T14:51:09.104Z,22.20
2017-10-17T14:53:35.192Z,22.10
2017-10-17T14:56:01.323Z,22.00
2017-10-17T14:58:27.461Z,21.90
2017-10-17T15:00:53.534Z,21.90
2017-10-17T15:03:19.629Z,21.70
2017-10-17T15:05:45.729Z,21.70
2017-10-17T15:08:11.813Z,21.70
2017-10-17T15:10:38.163Z,21.60
2017-10-17T15:13:04.315Z,21.50
2017-10-17T15:15:31.144Z,21.40
2017-10-17T15:17:57.262Z,21.30
2017-10-17T15:20:23.388Z,21.30
2017-10-17T15:22:49.443Z,21.10
2017-10-17T15:25:15.521Z,21.10
2017-10-17T15:27:41.613Z,21.00
2017-10-17T15:30:07.716Z,21.00
2017-10-17T15:32:33.900Z,20.90
2017-10-17T15:35:00.025Z,20.90
2017-10-17T15:37:26.139Z,20.80
2017-10-17T15:39:52.272Z,20.70
2017-10-17T15:42:18.412Z,20.60
2017-10-17T15:44:44.495Z,20.50
2017-10-17T15:47:10.736Z,20.40
2017-10-17T15:49:36.885Z,20.30
2017-10-17T15:52:03.096Z,20.20
2017-10-17T15:54:29.221Z,20.10
2017-10-17T15:56:55.387Z,20.10
2017-10-17T15:59:21.529Z,20.00
2017-10-17T16:01:47.656Z,20.10
2017-10-17T16:04:13.837Z,20.10
2017-10-17T16:06:40.676Z,20.00
2017-10-17T16:09:13.804Z,20.00
2017-10-17T16:11:40.654Z,20.00
2017-10-17T16:14:06.836Z,20.00
2017-10-17T16:16:33.298Z,19.90
2017-10-17T16:18:59.787Z,19.80
2017-10-17T16:21:27.775Z,19.70
2017-10-17T16:23:53.968Z,19.70
2017-10-17T16:26:20.085Z,19.60
2017-10-17T16:28:46.525Z,19.70
2017-10-17T16:31:12.639Z,19.60
2017-10-17T16:33:38.739Z,19.50
2017-10-17T16:36:05.501Z,19.30
2017-10-17T16:38:33.243Z,18.90
2017-10-17T16:40:59.361Z,18.90
2017-10-17T16:43:25.522Z,18.80
2017-10-17T16:48:49.602Z,18.70
2017-10-17T16:51:16.493Z,18.60
2017-10-17T16:53:42.752Z,18.60
2017-10-17T16:56:08.920Z,18.70
2017-10-17T16:58:35.036Z,18.70
2017-10-17T17:01:01.186Z,18.80
2017-10-17T17:03:27.409Z,18.90
2017-10-17T17:05:53.525Z,18.90
2017-10-17T17:08:19.680Z,18.90
2017-10-17T17:10:45.821Z,18.90
2017-10-17T17:13:12.016Z,18.90
2017-10-17T17:15:38.886Z,18.60
2017-10-17T17:18:04.968Z,18.60
2017-10-17T17:20:31.107Z,18.60
2017-10-17T17:22:57.212Z,18.60
2017-10-17T17:25:23.397Z,18.60
2017-10-17T17:27:49.509Z,18.50
2017-10-17T17:30:15.635Z,18.50
2017-10-17T17:32:41.812Z,18.50
2017-10-17T17:35:07.965Z,18.50
2017-10-17T17:37:34.802Z,18.30
2017-10-17T17:40:00.929Z,18.30
2017-10-17T17:42:27.120Z,18.20
2017-10-17T17:44:53.241Z,18.10
2017-10-17T17:47:19.328Z,18.10
2017-10-17T17:49:46.764Z,18.10
2017-10-17T17:52:13.716Z,18.40
2017-10-17T17:54:39.944Z,18.40
2017-10-17T17:57:06.836Z,18.30
2017-10-17T17:59:32.900Z,18.30
2017-10-17T18:01:58.976Z,18.30
2017-10-17T18:04:25.149Z,18.20
2017-10-17T18:06:51.307Z,18.20
2017-10-17T18:09:17.432Z,18.30
2017-10-17T18:11:43.537Z,18.30
2017-10-17T18:14:10.507Z,18.10
2017-10-17T18:16:37.013Z,18.10
2017-10-17T18:19:03.100Z,18.00
2017-10-17T18:21:29.273Z,17.90
2017-10-17T18:23:55.541Z,17.90
2017-10-17T18:26:21.690Z,17.80
2017-10-17T18:28:48.520Z,17.80
2017-10-17T18:31:14.616Z,17.70
2017-10-17T18:33:41.518Z,17.60
2017-10-17T18:36:07.611Z,17.60
2017-10-17T18:38:33.716Z,17.50
2017-10-17T18:40:59.784Z,17.40
2017-10-17T18:43:25.971Z,17.30
2017-10-17T18:45:52.078Z,17.10
2017-10-17T18:48:18.189Z,17.10
2017-10-17T18:50:44.369Z,17.00
2017-10-17T18:53:10.444Z,17.00
2017-10-17T18:55:36.836Z,17.00
2017-10-17T18:58:03.036Z,16.90
2017-10-17T19:00:29.118Z,16.80
2017-10-17T19:02:55.985Z,16.70
2017-10-17T19:05:22.328Z,16.60
2017-10-17T19:07:48.416Z,16.60
2017-10-17T19:10:14.508Z,16.60
2017-10-17T19:12:40.634Z,16.60
2017-10-17T19:15:06.738Z,16.50
2017-10-17T19:17:32.851Z,16.50
2017-10-17T19:19:59.001Z,16.40
2017-10-17T19:22:25.137Z,16.40
2017-10-17T19:24:51.544Z,16.30
2017-10-17T19:27:17.614Z,16.30
2017-10-17T19:29:43.777Z,16.20
2017-10-17T19:32:10.275Z,16.20
2017-10-17T19:34:36.362Z,16.20
2017-10-17T19:37:02.468Z,16.20
2017-10-17T19:39:28.596Z,16.10
2017-10-17T19:41:54.676Z,16.10
2017-10-17T19:44:20.747Z,16.10
2017-10-17T19:46:46.882Z,16.00
2017-10-17T19:49:12.956Z,15.90
2017-10-17T19:51:39.023Z,15.90
2017-10-17T19:54:05.112Z,15.80
2017-10-17T19:56:31.216Z,15.80
2017-10-17T19:58:58.217Z,15.70
2017-10-17T20:01:24.315Z,15.70
2017-10-17T20:03:51.140Z,15.60
2017-10-17T20:06:17.207Z,15.60
2017-10-17T20:08:44.052Z,15.60
2017-10-17T20:11:10.898Z,15.60
2017-10-17T20:13:36.972Z,15.60
2017-10-17T20:16:03.073Z,15.70
2017-10-17T20:18:29.934Z,15.70
2017-10-17T20:20:56.141Z,15.70
2017-10-17T20:23:22.250Z,15.70
2017-10-17T20:25:48.344Z,15.70
2017-10-17T20:28:14.607Z,15.70
2017-10-17T20:30:40.712Z,15.80
2017-10-17T20:33:06.954Z,15.70
2017-10-17T20:35:33.017Z,15.80
2017-10-17T20:37:59.860Z,15.60
2017-10-17T20:40:25.962Z,15.60
2017-10-17T20:42:52.087Z,15.50
2017-10-17T20:45:18.200Z,15.50
2017-10-17T20:47:44.288Z,15.40
2017-10-17T20:50:10.361Z,15.40
2017-10-17T20:52:37.205Z,15.50
2017-10-17T20:55:03.344Z,15.50
2017-10-17T20:57:30.224Z,15.40
2017-10-17T20:59:56.336Z,15.40
2017-10-17T21:02:23.289Z,15.30
2017-10-17T21:04:50.112Z,15.30
2017-10-17T21:07:16.233Z,15.30
2017-10-17T21:09:42.313Z,15.30
2017-10-17T21:12:08.500Z,15.20
2017-10-17T21:14:34.624Z,15.10
2017-10-17T21:17:00.688Z,15.10
2017-10-17T21:19:26.769Z,15.10
2017-10-17T21:21:52.973Z,15.00
2017-10-17T21:24:19.079Z,15.00
2017-10-17T21:26:45.157Z,14.90
2017-10-17T21:29:11.245Z,14.80
2017-10-17T21:31:38.122Z,14.80
2017-10-17T21:34:04.231Z,14.70
2017-10-17T21:36:31.089Z,14.70
2017-10-17T21:38:57.993Z,14.60
2017-10-17T21:41:24.092Z,14.60
2017-10-17T21:43:50.212Z,14.60
2017-10-17T21:46:17.024Z,14.60
2017-10-17T21:48:43.136Z,14.50
2017-10-17T21:51:09.256Z,14.60
2017-10-17T21:53:36.059Z,14.60
2017-10-17T21:56:02.149Z,14.60
2017-10-17T21:58:29.021Z,14.60
2017-10-17T22:01:01.148Z,14.60
2017-10-17T22:03:27.360Z,14.60
2017-10-17T22:05:53.804Z,14.60
2017-10-17T22:08:19.892Z,14.50
2017-10-17T22:10:46.725Z,14.50
2017-10-17T22:13:12.922Z,14.50
2017-10-17T22:15:39.032Z,14.50
2017-10-17T22:18:05.986Z,14.40
2017-10-17T22:20:32.878Z,14.40
2017-10-17T22:22:59.065Z,14.40
2017-10-17T22:25:25.329Z,14.40
2017-10-17T22:27:52.274Z,14.40
2017-10-17T22:30:18.546Z,14.30
2017-10-17T22:32:44.702Z,14.30
2017-10-17T22:35:10.865Z,14.30
2017-10-17T22:37:37.118Z,14.30
2017-10-17T22:40:04.076Z,14.30
2017-10-17T22:42:30.936Z,14.20
2017-10-17T22:44:57.290Z,14.20
2017-10-17T22:47:24.237Z,14.00
2017-10-17T22:49:50.438Z,14.00
2017-10-17T22:52:16.566Z,14.10
2017-10-17T22:54:42.721Z,14.20
2017-10-17T22:57:08.842Z,14.20
2017-10-17T22:59:35.005Z,14.10
2017-10-17T23:02:01.150Z,14.10
2017-10-17T23:04:27.260Z,14.10
2017-10-17T23:06:53.442Z,14.00
2017-10-17T23:09:19.649Z,14.10
2017-10-17T23:11:45.770Z,14.00
2017-10-17T23:14:11.919Z,14.10
2017-10-17T23:16:44.106Z,14.00
2017-10-17T23:19:22.689Z,14.00
2017-10-17T23:21:49.556Z,14.10
2017-10-17T23:24:16.433Z,14.00
2017-10-17T23:26:42.562Z,14.00
2017-10-17T23:29:08.721Z,14.10
2017-10-17T23:31:34.840Z,14.00
2017-10-17T23:34:00.990Z,14.00
2017-10-17T23:36:27.169Z,13.90
2017-10-17T23:38:53.255Z,13.90
2017-10-17T23:41:19.400Z,13.90
2017-10-17T23:43:45.538Z,13.90
2017-10-17T23:46:11.680Z,13.90
2017-10-17T23:48:37.818Z,13.90
2017-10-17T23:51:03.912Z,14.00
2017-10-17T23:53:30.090Z,14.00
2017-10-17T23:55:56.249Z,14.10
2017-10-17T23:58:22.401Z,14.00
